Wakefield, Michigan
Current Conditions -  °F | °C
As of 12:15 AM on Thursday 23 Oct 2014 (Local Time) from KIWD Reporting Station
Broken Clouds Broken Clouds  
Wind Chill: 46°   Ceiling: 7500
Heat Index: 48°   Visibility: 10mi
Dew Point: 36°   Wind: 5mph
Humidity: 62%   Direction: 240°WSW
Pressure: 30.04"   Gusts: 17mph
Location:  46.48°N, 89.94°W
Report Text: KIWD 230515Z AUTO 24004G15KT 190V250 10SM SCT065 BKN075 09/02 A3004 RMK AO1
Loading
Personal Weather Stations






























Interactive Weather Map
Tropical Storm Tracking
New forecast layout! Learn more

10-Day Weather Forecast

Advertisements
Track Severe Weather on mobile